Air Sicilia Virtual Airways - Route

Air Sicilia Virtual Airways - SIC245L

( TH ) VTBU
U-Tapao International Airport
RAYONG ( UTP )
plane_to ( SG ) WSAP
Paya Lebar Air Base
( QPG )
Tour Amelia EARHART - LEG: 21

AIRPORT NEAR NAVIGATION AIDS

Type Name Frequency
TACAN U Taphao 115800 KHZ
VOR-DME U Taphao 110800 KHZ
NDB U Taphao 414 KHZ

METAR / TAF
VTBU 210400Z 23011KT 9999 FEW020 SCT100 31/22 Q1009 NOSIG

RUNWAY INFORMATION

Runway Runway length Runway width Runway elevation Runway displaced threshold Runway heading
18 11500 197 59 0 185
36 11500 197 25 0 5

AIRPORT FREQUENCIES

Type Name Frequency
APP APP 119.7 MHZ
GND GND 121.9 MHZ
TWR TWR 118.3 MHZ

AIRPORT NEAR NAVIGATION AIDS

Type Name Frequency
TACAN Paya Lebar 116300 KHZ
VOR-DME Papa Uniform 115100 KHZ
VOR-DME Sinjon 113500 KHZ

METAR / TAF
WSAP 210400Z 17006KT 9999 FEW018 BKN300 32/23 Q1009

RUNWAY INFORMATION

Runway Runway length Runway width Runway elevation Runway displaced threshold Runway heading
02 12401 200 43 0 22.9
20 12401 200 65 0 202.9

AIRPORT FREQUENCIES

Type Name Frequency
ACC SINGAPORE 127.3 MHZ
APP APP 119.9 MHZ
ATIS ATIS 148.9 MHZ
GND GND 118.05 MHZ
OPS AMC OPS 34.94 MHZ
TWR TWR 118.05 MHZ

Flightplan

via KUALA TERENGGAUN WMKN

Air Sicilia Virtual Airways Fleets

AVAILABLE AIRCRAFTS for route at this time in U-Tapao International Airport
DC3 - Douglas DC3
( US ) Douglas

Aircraft in fleet: 2

703 NM

Distance in nautical miles.

€ 0,00

Ticket price for this flight.

Nr. 21

Leg



12-11-2018
Aerosoft Airport Rio de Janeiro International V2.0 XP

L'Aeroporto Internazionale di Rio de Janeiro-Galeão (IATA: GIG, ICAO: SBGL), costruito nel 1952 nel quartiere di Ilha do Governador ed intitolato al musicista Antônio Carlos Jobim, è il principale aeroporto internazio ....


15-10-2018
Aerosoft A320 Family professional

La gamma di aeromobili A320 è una delle più comuni nei cieli. Questi aerei di linea a doppio-getto a corto e medio raggio si sono dimostrati convenienti, affidabili e prontamente disponibili, rendendoli le opzioni migl ....


10-10-2018
Motore critico ( Critical Engine )

Il motore critico di un velivolo ad ala fissa multi-motore è il motore che, in caso di guasto, influirebbe negativamente sulle prestazioni o sulla capacità di manovra di un aereo. Sui velivoli ad elica, vi è un ....


04-10-2018
Aerosoft Dortmund XP

Scopri il centro della regione della Ruhr su XPlane 11 - lo scenario Dortmund XP è una ricostruzione completa della città di Dortmund per il simulatore di volo targato Laminar. Oltre all'intera area urbana di Dortmu ....


07-08-2018
Aerosoft Professional Flight Planner PFPX

PFPX - Professional Flight Planner X - è un nuovo ed innovativo strumento di pianificazione del volo sviluppato da piloti e dispatcher del mondo reale. È un'aggiunta preziosa e realistica alla tua esperienza di simulaz ....